Strona główna
METAR-TAF:

METAR-TAF

Lotnisko :

Port lotniczy Ko Samui

Ko Samui, Tajlandia

Szerokość geograficzna: 09-32-52N, Długość geograficzna: 100-03-44E, wysokość: 20 m

Aktualna obserwacja pogody

Raport powstał 22 minut temu, godzina 10:00 UTC
Wiatr 10 kt od południowo-południowy wschód
Temperatura 30°C
Wilgotność 75%
Ciśnienie 1010 hPa
Widzialność: 8000 m
Mało chmury na wysokości 2000 ft

METAR: VTSM 181000Z 16010KT 8000 FEW020 30/25 Q1010 NOSIG

czas: 17:22 (10:22 UTC)

Prognoza

Raport powstał 5 godziny i 22 minut temu, godzina 05:00 UTC
Prognoza ważna od 18 godzina 06 UTC do 19 godzina 06 UTC
Wiatr 10 kt od południowo-południowy wschód
Widzialność: 8000 m
Mało chmury na wysokości 2000 ft
Prawdopodobieństwo 40% :
Przejściowo
od 18 godzina 10 UTC do 18 godzina 16 UTC
Widzialność: 5000 m
Rozproszone chmury na wysokości 1500 ft
Przerywane chmury na wysokości 10000 ft
deszcz

TAF: VTSM 180500Z 1806/1906 15010KT 8000 FEW020 PROB40 TEMPO 1810/1816 5000 RA SCT015 BKN100

Obserwacja i prognoza pogody dla ponad 4000 lotnisk (raport METAR i TAF).

Dostępne stacje oznaczono żółtymi i czerwonymi punktami na mapie.

Najedź kursorem aby zobaczyć nazwę stacji.

Kliknij aby zobaczyć obserwacje i prognozy pogody.

Aby zmienić mapę: kliknij na zielony przycisk z czarnym krzyżykiem, aby powiększyć; na zielony przycisk z myślnikiem, aby pomniejszyć; na zielone strzałki, aby przejść do map sąsiednich.


METAR-TAF: